Miramarin — 9HA2280 — position and weather

sailwx.info

Track history (hours):
 
Tides and Currents Weather Stations Pressure Air Temp Water Temp Dewpoint Dewpoint Depression Visibility Wind Speed Wind Dir Waves Ship Positions

Miramarin

Last reported at 2018-Jun-21 00:37 UTC. Time now 2018-Jun-22 03:14 UTC.
Position N 24°14' E 118°53'.

Length 299 m; draft 10 m.

Type: Cargo ship. MMSI: 248278000.

Date/timePositionNaut miles runAvg speedWind from/ knotsBaromVisibWave heightAir tempDewpointWater temp
2018-Jun-21 00:37N 24°14' E 118°53'615.8
2018-Jun-21 00:13N 24°10' E 118°48'316.6
2018-Jun-21 00:00N 24°09' E 118°44'  
2018-Jun-17 04:47N 01°32' E 104°36'517.6
2018-Jun-17 04:30N 01°29' E 104°32'917.6
2018-Jun-17 04:00N 01°23' E 104°26'817.3
2018-Jun-17 03:31N 01°17' E 104°20'1018.1
2018-Jun-17 02:57N 01°16' E 104°10'818.1
2018-Jun-17 02:29N 01°14' E 104°01'817.0
2018-Jun-17 02:00N 01°13' E 103°53'4 7.5
2018-Jun-17 01:30N 01°16' E 103°50'0 0.3
2018-Jun-17 00:59N 01°16' E 103°50'0 0.0
2018-Jun-17 00:29N 01°16' E 103°50'0 0.0
2018-Jun-16 23:58N 01°16' E 103°50'0 0.0
2018-Jun-16 23:19N 01°16' E 103°50'0 0.0
2018-Jun-16 22:56N 01°16' E 103°50'0 0.0
2018-Jun-16 22:28N 01°16' E 103°50'0 0.0
2018-Jun-16 21:59N 01°16' E 103°50'0 0.0
2018-Jun-16 21:28N 01°16' E 103°50'0 0.0
2018-Jun-16 20:56N 01°16' E 103°50'0 0.0
2018-Jun-16 20:28N 01°16' E 103°50'0 0.0
2018-Jun-16 19:53N 01°16' E 103°50'0 0.0
2018-Jun-16 19:29N 01°16' E 103°50'0 0.0
2018-Jun-16 18:50N 01°16' E 103°50'0 0.0
2018-Jun-16 18:29N 01°16' E 103°50'0 0.0
2018-Jun-16 17:52N 01°16' E 103°50'0 0.0
2018-Jun-16 17:26N 01°16' E 103°50'0 0.0
2018-Jun-16 16:58N 01°16' E 103°50'0 0.0
2018-Jun-16 16:29N 01°16' E 103°50'0 0.0
2018-Jun-16 15:59N 01°16' E 103°50'0 0.0
2018-Jun-16 15:29N 01°16' E 103°50'0 0.0
2018-Jun-16 14:59N 01°16' E 103°50'0 0.0
2018-Jun-16 14:29N 01°16' E 103°50'0 0.2
2018-Jun-16 14:00N 01°16' E 103°51'2 4.0
2018-Jun-16 13:30N 01°14' E 103°52'5 9.0
2018-Jun-16 13:00N 01°15' E 103°57'1 1.8
2018-Jun-16 12:28N 01°16' E 103°57'0 0.1
2018-Jun-16 11:57N 01°16' E 103°57'0 0.0
2018-Jun-16 11:30N 01°16' E 103°57'0 0.1
2018-Jun-16 11:00N 01°16' E 103°57'0 0.0
2018-Jun-16 10:15N 01°16' E 103°57'0 0.0
2018-Jun-16 10:00N 01°16' E 103°57'0 0.1
2018-Jun-16 09:12N 01°16' E 103°57'0 0.0
2018-Jun-16 08:48N 01°16' E 103°57'0 0.0
2018-Jun-16 08:30N 01°16' E 103°57'0 0.1
2018-Jun-16 07:57N 01°16' E 103°57'0 0.0
2018-Jun-16 07:27N 01°16' E 103°57'0 0.1
2018-Jun-16 06:57N 01°16' E 103°57'0 0.0
2018-Jun-16 06:18N 01°16' E 103°57'0 0.3
2018-Jun-16 05:51N 01°16' E 103°57'0 0.3
2018-Jun-16 05:27N 01°16' E 103°57'0 0.0
2018-Jun-16 04:48N 01°16' E 103°57'0 0.2
2018-Jun-16 04:30N 01°16' E 103°57'0 0.1
2018-Jun-16 03:57N 01°16' E 103°57'0 0.0
2018-Jun-16 03:30N 01°16' E 103°57'0 0.3
2018-Jun-16 02:55N 01°16' E 103°57'1 3.2
2018-Jun-16 02:30N 01°15' E 103°56'3 6.6
2018-Jun-16 02:00N 01°14' E 103°53'2 4.7
2018-Jun-16 01:30N 01°12' E 103°52'918.1
2018-Jun-16 01:00N 01°06' E 103°45'815.3
2018-Jun-16 00:30N 01°03' E 103°38'714.5
2018-Jun-16 00:00N 01°07' E 103°31'815.2
2018-Jun-15 23:30N 01°11' E 103°25'815.7
2018-Jun-15 23:00N 01°16' E 103°19'815.2
2018-Jun-15 22:29N 01°21' E 103°13'  
Track history (hours):
 
Tides and Currents Weather Stations Pressure Air Temp Water Temp Dewpoint Dewpoint Depression Visibility Wind Speed Wind Dir Waves Ship Positions

Miramarin

Last reported at 2018-Jun-21 00:37 UTC. Time now 2018-Jun-22 03:14 UTC.
Position N 24°14' E 118°53'.

Length 299 m; draft 10 m.

Type: Cargo ship. MMSI: 248278000.

Date/timePositionNaut miles runAvg speedWind from/ knotsBaromVisibWave heightAir tempDewpointWater temp
2018-Jun-21 00:37N 24°14' E 118°53'615.8
2018-Jun-21 00:13N 24°10' E 118°48'316.6
2018-Jun-21 00:00N 24°09' E 118°44'  
2018-Jun-17 04:47N 01°32' E 104°36'517.6
2018-Jun-17 04:30N 01°29' E 104°32'917.6
2018-Jun-17 04:00N 01°23' E 104°26'817.3
2018-Jun-17 03:31N 01°17' E 104°20'1018.1
2018-Jun-17 02:57N 01°16' E 104°10'818.1
2018-Jun-17 02:29N 01°14' E 104°01'817.0
2018-Jun-17 02:00N 01°13' E 103°53'4 7.5
2018-Jun-17 01:30N 01°16' E 103°50'0 0.3
2018-Jun-17 00:59N 01°16' E 103°50'0 0.0
2018-Jun-17 00:29N 01°16' E 103°50'0 0.0
2018-Jun-16 23:58N 01°16' E 103°50'0 0.0
2018-Jun-16 23:19N 01°16' E 103°50'0 0.0
2018-Jun-16 22:56N 01°16' E 103°50'0 0.0
2018-Jun-16 22:28N 01°16' E 103°50'0 0.0
2018-Jun-16 21:59N 01°16' E 103°50'0 0.0
2018-Jun-16 21:28N 01°16' E 103°50'0 0.0
2018-Jun-16 20:56N 01°16' E 103°50'0 0.0
2018-Jun-16 20:28N 01°16' E 103°50'0 0.0
2018-Jun-16 19:53N 01°16' E 103°50'0 0.0
2018-Jun-16 19:29N 01°16' E 103°50'0 0.0
2018-Jun-16 18:50N 01°16' E 103°50'0 0.0
2018-Jun-16 18:29N 01°16' E 103°50'0 0.0
2018-Jun-16 17:52N 01°16' E 103°50'0 0.0
2018-Jun-16 17:26N 01°16' E 103°50'0 0.0
2018-Jun-16 16:58N 01°16' E 103°50'0 0.0
2018-Jun-16 16:29N 01°16' E 103°50'0 0.0
2018-Jun-16 15:59N 01°16' E 103°50'0 0.0
2018-Jun-16 15:29N 01°16' E 103°50'0 0.0
2018-Jun-16 14:59N 01°16' E 103°50'0 0.0
2018-Jun-16 14:29N 01°16' E 103°50'0 0.2
2018-Jun-16 14:00N 01°16' E 103°51'2 4.0
2018-Jun-16 13:30N 01°14' E 103°52'5 9.0
2018-Jun-16 13:00N 01°15' E 103°57'1 1.8
2018-Jun-16 12:28N 01°16' E 103°57'0 0.1
2018-Jun-16 11:57N 01°16' E 103°57'0 0.0
2018-Jun-16 11:30N 01°16' E 103°57'0 0.1
2018-Jun-16 11:00N 01°16' E 103°57'0 0.0
2018-Jun-16 10:15N 01°16' E 103°57'0 0.0
2018-Jun-16 10:00N 01°16' E 103°57'0 0.1
2018-Jun-16 09:12N 01°16' E 103°57'0 0.0
2018-Jun-16 08:48N 01°16' E 103°57'0 0.0
2018-Jun-16 08:30N 01°16' E 103°57'0 0.1
2018-Jun-16 07:57N 01°16' E 103°57'0 0.0
2018-Jun-16 07:27N 01°16' E 103°57'0 0.1
2018-Jun-16 06:57N 01°16' E 103°57'0 0.0
2018-Jun-16 06:18N 01°16' E 103°57'0 0.3
2018-Jun-16 05:51N 01°16' E 103°57'0 0.3
2018-Jun-16 05:27N 01°16' E 103°57'0 0.0
2018-Jun-16 04:48N 01°16' E 103°57'0 0.2
2018-Jun-16 04:30N 01°16' E 103°57'0 0.1
2018-Jun-16 03:57N 01°16' E 103°57'0 0.0
2018-Jun-16 03:30N 01°16' E 103°57'0 0.3
2018-Jun-16 02:55N 01°16' E 103°57'1 3.2
2018-Jun-16 02:30N 01°15' E 103°56'3 6.6
2018-Jun-16 02:00N 01°14' E 103°53'2 4.7
2018-Jun-16 01:30N 01°12' E 103°52'918.1
2018-Jun-16 01:00N 01°06' E 103°45'815.3
2018-Jun-16 00:30N 01°03' E 103°38'714.5
2018-Jun-16 00:00N 01°07' E 103°31'815.2
2018-Jun-15 23:30N 01°11' E 103°25'815.7
2018-Jun-15 23:00N 01°16' E 103°19'815.2
2018-Jun-15 22:29N 01°21' E 103°13'  

Dump ship's entire track history